createdAt,value
2023-05-03T00:03:37.146Z,10.80
2023-05-03T00:07:39.665Z,11.07
2023-05-03T00:11:40.869Z,11.00
2023-05-03T00:15:41.990Z,12.00
2023-05-03T00:19:43.150Z,12.30
2023-05-03T00:23:44.125Z,12.07
2023-05-03T00:27:45.136Z,12.00
2023-05-03T00:31:46.286Z,11.57
2023-05-03T00:35:47.396Z,12.60
2023-05-03T00:39:48.823Z,11.57
2023-05-03T00:43:50.149Z,11.53
2023-05-03T00:47:51.278Z,11.53
2023-05-03T00:51:53.978Z,12.07
2023-05-03T00:55:56.945Z,12.10
2023-05-03T01:00:01.564Z,13.47
2023-05-03T01:04:05.869Z,12.90
2023-05-03T01:08:19.517Z,12.67
2023-05-03T01:12:39.320Z,12.50
2023-05-03T01:16:53.796Z,13.77
2023-05-03T01:20:56.958Z,13.50
2023-05-03T01:25:05.435Z,13.90
2023-05-03T01:29:06.411Z,12.93
2023-05-03T01:33:19.934Z,12.07
2023-05-03T01:37:21.257Z,12.20
2023-05-03T01:41:24.175Z,13.83
2023-05-03T01:45:26.035Z,14.40
2023-05-03T01:49:26.976Z,13.57
2023-05-03T01:53:28.052Z,14.47
2023-05-03T01:57:29.175Z,13.97
2023-05-03T02:01:30.213Z,14.17
2023-05-03T02:05:31.132Z,14.63
2023-05-03T02:09:32.629Z,12.30
2023-05-03T02:13:34.602Z,12.43
2023-05-03T02:17:36.917Z,15.50
2023-05-03T02:21:37.925Z,14.53
2023-05-03T02:25:39.912Z,12.83
2023-05-03T02:29:40.919Z,11.67
2023-05-03T02:33:41.835Z,12.23
2023-05-03T02:37:43.146Z,12.90
2023-05-03T02:41:44.075Z,14.70
2023-05-03T02:45:45.275Z,13.60
2023-05-03T02:49:47.794Z,13.83
2023-05-03T02:53:48.728Z,14.27
2023-05-03T02:57:50.224Z,13.97
2023-05-03T03:01:51.475Z,14.30
2023-05-03T03:05:52.556Z,13.83
2023-05-03T03:09:53.634Z,14.33
2023-05-03T03:13:54.988Z,13.93
2023-05-03T03:17:57.713Z,22.27
2023-05-03T03:21:59.033Z,27.73
2023-05-03T03:26:00.492Z,16.30
2023-05-03T03:30:01.840Z,13.70
2023-05-03T03:34:03.055Z,14.33
2023-05-03T03:38:04.428Z,13.93
2023-05-03T03:42:06.775Z,17.10
2023-05-03T03:46:07.748Z,15.10
2023-05-03T03:50:09.297Z,13.10
2023-05-03T03:54:10.286Z,15.80
2023-05-03T03:58:11.384Z,14.97
2023-05-03T04:02:12.588Z,15.47
2023-05-03T04:06:13.713Z,13.63
2023-05-03T04:10:14.940Z,15.70
2023-05-03T04:14:15.888Z,16.10
2023-05-03T04:18:16.876Z,15.60
2023-05-03T04:22:17.809Z,14.83
2023-05-03T04:26:30.547Z,14.33
2023-05-03T04:30:24.187Z,17.10
2023-05-03T04:34:25.403Z,20.87
2023-05-03T04:38:26.333Z,21.07
2023-05-03T04:42:27.495Z,16.13
2023-05-03T04:46:28.524Z,16.60
2023-05-03T04:50:29.557Z,17.17
2023-05-03T04:54:30.669Z,15.63
2023-05-03T04:58:31.822Z,13.90
2023-05-03T05:02:32.961Z,16.40
2023-05-03T05:06:33.958Z,15.57
2023-05-03T05:10:39.759Z,16.07
2023-05-03T05:14:40.890Z,15.27
2023-05-03T05:18:41.842Z,15.43
2023-05-03T05:22:42.988Z,15.63
2023-05-03T05:26:44.555Z,13.63
2023-05-03T05:30:45.682Z,13.23
2023-05-03T05:34:48.774Z,13.97
2023-05-03T05:38:50.109Z,14.80
2023-05-03T05:42:51.293Z,13.50
2023-05-03T05:46:52.467Z,13.00
2023-05-03T05:50:53.449Z,11.97
2023-05-03T05:54:54.767Z,12.57
2023-05-03T05:58:57.130Z,11.50
2023-05-03T06:02:58.145Z,11.20
2023-05-03T06:06:59.342Z,11.60
2023-05-03T06:11:00.577Z,11.30
2023-05-03T06:15:03.267Z,12.37
2023-05-03T06:19:04.663Z,11.67
2023-05-03T06:23:05.656Z,11.80
2023-05-03T06:27:07.051Z,13.37
2023-05-03T06:31:08.224Z,10.27
2023-05-03T06:35:09.489Z,10.67
2023-05-03T06:39:10.662Z,11.63
2023-05-03T06:43:11.895Z,10.10
2023-05-03T06:47:12.880Z,9.50
2023-05-03T06:51:14.074Z,10.23
2023-05-03T06:55:15.430Z,10.87
2023-05-03T06:59:16.731Z,8.83
2023-05-03T07:03:17.837Z,9.50
2023-05-03T07:07:19.002Z,10.07
2023-05-03T07:11:24.057Z,9.17
2023-05-03T07:15:25.172Z,10.10
2023-05-03T07:19:26.203Z,9.27
2023-05-03T07:23:27.321Z,10.53
2023-05-03T07:27:28.308Z,8.53
2023-05-03T07:31:29.600Z,10.20
2023-05-03T07:35:32.543Z,10.50
2023-05-03T07:39:33.497Z,9.23
2023-05-03T07:43:34.589Z,8.87
2023-05-03T07:47:37.977Z,9.43
2023-05-03T07:51:39.241Z,11.37
2023-05-03T07:55:40.994Z,9.40
2023-05-03T07:59:42.894Z,9.27
2023-05-03T08:03:44.087Z,10.57
2023-05-03T08:07:45.362Z,9.63
2023-05-03T08:11:46.427Z,8.57
2023-05-03T08:15:48.098Z,9.80
2023-05-03T08:19:49.932Z,9.10
2023-05-03T08:23:51.158Z,8.80
2023-05-03T08:27:52.264Z,8.47
2023-05-03T08:31:53.727Z,8.97
2023-05-03T08:35:55.055Z,8.37
2023-05-03T08:39:56.058Z,8.13
2023-05-03T08:43:58.352Z,8.47
2023-05-03T08:48:01.621Z,9.00
2023-05-03T08:52:05.788Z,10.20
2023-05-03T08:56:09.802Z,9.40
2023-05-03T09:00:12.143Z,8.93
2023-05-03T09:04:13.408Z,8.97
2023-05-03T09:08:16.265Z,8.30
2023-05-03T09:12:37.054Z,9.50
2023-05-03T09:16:40.413Z,8.40
2023-05-03T09:20:42.414Z,8.47
2023-05-03T09:24:52.528Z,8.10
2023-05-03T09:28:53.935Z,8.50
2023-05-03T09:32:55.000Z,8.33
2023-05-03T09:36:56.257Z,7.80
2023-05-03T09:40:57.978Z,10.30
2023-05-03T09:44:58.968Z,9.03
2023-05-03T09:49:00.696Z,8.87
2023-05-03T09:53:03.470Z,9.93
2023-05-03T09:57:05.824Z,8.20
2023-05-03T10:01:09.240Z,8.50
2023-05-03T10:05:12.076Z,8.13
2023-05-03T10:09:20.091Z,9.20
2023-05-03T10:13:24.599Z,8.13
2023-05-03T10:17:46.548Z,8.33
2023-05-03T10:21:36.858Z,8.87
2023-05-03T10:25:39.749Z,7.63
2023-05-03T10:29:47.959Z,7.43
2023-05-03T10:33:49.012Z,7.20
2023-05-03T10:37:51.311Z,7.80
2023-05-03T10:41:59.225Z,8.23
2023-05-03T10:46:02.903Z,7.70
2023-05-03T10:50:19.700Z,7.17
2023-05-03T10:54:20.943Z,8.80
2023-05-03T10:58:21.880Z,6.50
2023-05-03T11:02:29.860Z,7.67
2023-05-03T11:06:32.920Z,7.33
2023-05-03T11:10:34.034Z,7.63
2023-05-03T11:14:35.168Z,7.40
2023-05-03T11:18:36.218Z,7.00
2023-05-03T11:22:37.415Z,6.87
2023-05-03T11:26:38.770Z,6.83
2023-05-03T11:30:39.722Z,7.00
2023-05-03T11:34:41.008Z,6.97
2023-05-03T11:38:41.950Z,8.13
2023-05-03T11:42:56.067Z,6.60
2023-05-03T11:46:57.524Z,6.20
2023-05-03T11:50:58.701Z,6.73
2023-05-03T11:55:00.991Z,7.07
2023-05-03T11:59:03.070Z,7.63
2023-05-03T12:03:04.444Z,6.30
2023-05-03T12:07:07.538Z,8.27
2023-05-03T12:11:10.128Z,7.20
2023-05-03T12:15:13.190Z,6.63
2023-05-03T12:19:32.275Z,6.27
2023-05-03T12:23:34.128Z,7.03
2023-05-03T12:27:35.048Z,6.03
2023-05-03T12:31:39.129Z,6.47
2023-05-03T12:35:41.138Z,6.70
2023-05-03T12:39:45.978Z,7.07
2023-05-03T12:43:45.709Z,6.53
2023-05-03T12:47:50.159Z,6.40
2023-05-03T12:52:06.583Z,6.03
2023-05-03T12:55:55.468Z,5.10
2023-05-03T13:00:02.030Z,6.33
2023-05-03T13:04:24.034Z,5.73
2023-05-03T13:08:08.090Z,6.63
2023-05-03T13:12:06.005Z,6.50
2023-05-03T13:16:08.310Z,5.07
2023-05-03T13:20:10.165Z,5.47
2023-05-03T13:24:11.119Z,6.00
2023-05-03T13:28:12.211Z,6.77
2023-05-03T13:32:13.380Z,5.97
2023-05-03T13:36:14.601Z,5.60
2023-05-03T13:40:15.831Z,5.33
2023-05-03T13:44:17.476Z,5.37
2023-05-03T13:48:19.469Z,5.63
2023-05-03T13:52:20.820Z,5.63
2023-05-03T13:56:21.737Z,5.60
2023-05-03T14:00:22.929Z,5.83
2023-05-03T14:04:24.799Z,4.20
2023-05-03T14:08:25.984Z,5.40
2023-05-03T14:12:27.687Z,4.67
2023-05-03T14:16:40.272Z,5.73
2023-05-03T14:20:33.889Z,5.20
2023-05-03T14:24:35.887Z,5.63
2023-05-03T14:28:37.005Z,4.33
2023-05-03T14:32:38.174Z,4.30
2023-05-03T14:36:41.287Z,4.33
2023-05-03T14:40:42.532Z,3.70
2023-05-03T14:44:43.978Z,4.07
2023-05-03T14:48:44.976Z,4.67
2023-05-03T14:52:46.124Z,3.97
2023-05-03T14:56:47.369Z,3.33
2023-05-03T15:00:48.577Z,3.67
2023-05-03T15:04:49.783Z,3.10
2023-05-03T15:08:51.671Z,3.30
2023-05-03T15:12:52.830Z,3.33
2023-05-03T15:16:53.856Z,3.17
2023-05-03T15:20:55.523Z,3.63
2023-05-03T15:24:56.629Z,3.77
2023-05-03T15:28:57.773Z,3.33
2023-05-03T15:32:58.947Z,4.87
2023-05-03T15:37:00.394Z,4.33
2023-05-03T15:41:01.680Z,3.37
2023-05-03T15:45:05.329Z,3.77
2023-05-03T15:49:06.297Z,4.30
2023-05-03T15:53:07.429Z,3.07
2023-05-03T15:57:08.652Z,4.33
2023-05-03T16:01:10.060Z,3.47
2023-05-03T16:05:11.180Z,3.73
2023-05-03T16:09:12.417Z,3.50
2023-05-03T16:13:13.725Z,2.83
2023-05-03T16:17:14.878Z,3.40
2023-05-03T16:21:16.321Z,3.50
2023-05-03T16:25:18.016Z,3.10
2023-05-03T16:29:19.445Z,3.43
2023-05-03T16:33:20.421Z,3.03
2023-05-03T16:37:21.585Z,3.43
2023-05-03T16:41:23.565Z,2.90
2023-05-03T16:45:24.691Z,3.40
2023-05-03T16:49:26.196Z,2.70
2023-05-03T16:53:27.447Z,3.00
2023-05-03T16:57:28.906Z,2.83
2023-05-03T17:01:30.048Z,3.33
2023-05-03T17:05:33.294Z,3.17
2023-05-03T17:09:34.651Z,3.47
2023-05-03T17:13:36.102Z,3.73
2023-05-03T17:17:37.132Z,2.63
2023-05-03T17:21:38.368Z,2.60
2023-05-03T17:25:39.713Z,3.67
2023-05-03T17:29:40.769Z,2.87
2023-05-03T17:33:41.970Z,3.97
2023-05-03T17:37:44.293Z,2.80
2023-05-03T17:41:45.519Z,3.00
2023-05-03T17:45:49.622Z,2.80
2023-05-03T17:49:50.892Z,2.50
2023-05-03T17:53:52.193Z,2.40
2023-05-03T17:57:53.438Z,2.50
2023-05-03T18:01:54.542Z,2.80
2023-05-03T18:05:55.892Z,3.40
2023-05-03T18:09:58.909Z,3.47
2023-05-03T18:14:00.434Z,3.60
2023-05-03T18:18:02.747Z,3.57
2023-05-03T18:22:05.168Z,2.90
2023-05-03T18:26:07.800Z,2.90
2023-05-03T18:30:09.902Z,2.90
2023-05-03T18:34:11.545Z,2.43
2023-05-03T18:38:12.660Z,3.10
2023-05-03T18:42:14.824Z,2.63
2023-05-03T18:46:18.167Z,2.80
2023-05-03T18:50:19.418Z,2.90
2023-05-03T18:54:20.477Z,3.70
2023-05-03T18:58:21.549Z,3.00
2023-05-03T19:02:22.671Z,3.57
2023-05-03T19:06:23.742Z,3.33
2023-05-03T19:10:24.812Z,3.43
2023-05-03T19:14:25.924Z,2.97
2023-05-03T19:18:26.881Z,2.73
2023-05-03T19:22:27.866Z,2.93
2023-05-03T19:26:29.053Z,3.43
2023-05-03T19:30:30.164Z,3.03
2023-05-03T19:34:33.159Z,3.50
2023-05-03T19:38:36.853Z,3.30
2023-05-03T19:42:37.814Z,2.70
2023-05-03T19:46:38.905Z,3.80
2023-05-03T19:50:40.010Z,3.30
2023-05-03T19:54:41.007Z,4.40
2023-05-03T19:58:42.137Z,4.80
2023-05-03T20:02:43.192Z,4.40
2023-05-03T20:06:44.416Z,4.50
2023-05-03T20:10:46.606Z,4.23
2023-05-03T20:14:47.727Z,4.97
2023-05-03T20:18:48.761Z,7.47
2023-05-03T20:22:49.916Z,6.30
2023-05-03T20:26:51.824Z,6.00
2023-05-03T20:30:52.860Z,5.63
2023-05-03T20:34:53.808Z,5.23
2023-05-03T20:38:55.633Z,6.57
2023-05-03T20:42:56.939Z,6.33
2023-05-03T20:46:58.069Z,6.40
2023-05-03T20:51:00.189Z,6.90
2023-05-03T20:55:01.096Z,7.40
2023-05-03T20:59:02.984Z,6.83
2023-05-03T21:03:04.105Z,8.10
2023-05-03T21:07:05.161Z,6.53
2023-05-03T21:11:06.239Z,7.47
2023-05-03T21:15:08.189Z,6.17
2023-05-03T21:19:09.797Z,6.03
2023-05-03T21:23:10.936Z,5.43
2023-05-03T21:27:11.932Z,7.30
2023-05-03T21:31:12.889Z,6.23
2023-05-03T21:35:13.866Z,6.07
2023-05-03T21:39:15.158Z,7.43
2023-05-03T21:43:16.517Z,9.37
2023-05-03T21:47:18.138Z,6.77
2023-05-03T21:51:21.825Z,6.50
2023-05-03T21:55:22.792Z,6.07
2023-05-03T21:59:23.995Z,6.37
2023-05-03T22:03:25.084Z,5.27
2023-05-03T22:07:26.470Z,6.27
2023-05-03T22:11:27.678Z,4.73
2023-05-03T22:15:31.016Z,5.93
2023-05-03T22:19:37.586Z,5.57
2023-05-03T22:23:38.586Z,5.40
2023-05-03T22:27:39.796Z,5.17
2023-05-03T22:31:40.979Z,5.40
2023-05-03T22:35:41.932Z,5.03
2023-05-03T22:39:43.090Z,5.60
2023-05-03T22:43:44.128Z,5.73
2023-05-03T22:47:45.184Z,5.27
2023-05-03T22:51:46.258Z,6.47
2023-05-03T22:56:03.581Z,5.23
2023-05-03T23:00:07.518Z,5.40
2023-05-03T23:04:08.686Z,5.30
2023-05-03T23:08:10.411Z,6.00
2023-05-03T23:12:11.580Z,5.70
2023-05-03T23:16:12.800Z,6.00
2023-05-03T23:20:14.622Z,5.70
2023-05-03T23:24:15.788Z,5.80
2023-05-03T23:28:17.093Z,6.13
2023-05-03T23:32:18.937Z,6.30
2023-05-03T23:36:20.277Z,7.13
2023-05-03T23:40:21.389Z,5.80
2023-05-03T23:44:22.502Z,6.20
2023-05-03T23:48:23.782Z,6.23
2023-05-03T23:52:24.869Z,6.30
2023-05-03T23:56:26.055Z,6.33
